EL2BG

Lookups:   3177
| Bureau | Direct | LoTW | eQSL
Name:richmond harding
QTH:Monrovia
Country:Liberia
Grid:IJ46OH
 
Web:
Email: el2bg@comcast.net
I. Harding
6141 Clifton Ave Ext
Jacksonville 32211
United States
 
Licensed since:1978
Born:1956
ITU: 46
CQ:35
IOTA:AF-111
 
 
  
Skype:babyrich
   
QSL via: 6141 Clifton Ave Ext, Jacksonville, FL 32211


 

CQ CQ CQ, this is Eco Lima 2 Bravo Golf calling CQ and standing by. I am a Life Member and the president of the Liberia Radio Amateur Association (LRAA) and also a member of The River City Amateur Radio Communications Society of Sacramento, CA and a member of ARRL.

I have two additional call signs. The call signs of 9L1HR from Sierra Leone and KI6YIP from Sacramento, CA since being an operator in 1978. 

I now reside in Liberia, Eco Lima Land and do pro bono work for the Government and people of Liberia, West Africa.  I am a civil engineer and have been working in the engineering field since 1983.

I have an arsenal of gears that are not in use due to my living condition in Liberia.  No real space for an antenna farm like I had in Sacramento, California.

My working condition consists of a Yaesu FT-857, an AT-100ProII antenna tuner, a dipole antenna and an Alinco DM-330FX power supply.

I am an amateur photographer and a student pilot. I love the outdoors and enjoy travelling all over the world.

That is my story and I am listening in for all the DX lovers to find me on all Bands.

Source Activity Date time
DXC DX de DK8ZZ: 18140.0 EL2BG 1759Z 2017-06-16 17:59:00
DXC DX de SV1LHZ: 18140.0 EL2BG Hi Richmond.5/8 in Kifisia (Athens)2 stations on the same f 2017-06-16 17:59:00
DXC DX de YO7MPD: 18140.0 EL2BG tnx Rich ! 1754Z 2017-06-16 17:54:00
DXC DX de S59GS: 18140.0 EL2BG GL RICHMOND 1753Z 2017-06-16 17:53:00
DXC DX de SV2HJW: 18140.0 EL2BG 73! 1750Z 2017-06-16 17:50:00
DXC DX de IZ1WWQ: 18140.0 EL2BG Mn Tnx Richmond 1739Z 2017-06-16 17:39:00
DXC DX de SV3ICL: 18140.0 EL2BG 73 1738Z 2017-06-16 17:38:00
DXC DX de IZ1UKG: 18140.0 EL2BG tnx Richmond for qso 1737Z 2017-06-16 17:37:00
DXC DX de F1TZE: 18140.0 EL2BG The best 73 1719Z 2017-06-16 17:19:00
DXC DX de RK6FO: 18140.0 EL2BG tnx QSO 1705Z 2017-06-16 17:05:00
DXC DX de OD5YA: 18140.0 EL2BG Tnx fr FB QSO with OD5YA 1703Z 2017-06-16 17:03:00
DXC DX de IK3PCZ: 18140.0 EL2BG 1702Z 2017-06-16 17:02:00
DXC DX de IK0OPS: 18140.0 EL2BG TNX 73 1658Z 2017-06-16 16:58:00
DXC DX de SV2CLJ: 18140.0 EL2BG rixhmond tu 1658Z 2017-06-16 16:58:00
DXC DX de SV2CLJ: 18140.0 EL2BG rixhmond hr no copy ! 1657Z 2017-06-16 16:57:00
DXC DX de EL2BG: 18140.0 EL2BG Rixhmond calling cq dx 1655Z 2017-06-16 16:55:00
DXC DX de IU2IDU: 14235.0 EL2BG Lot of QSB! This is my correct call! TNX 73 2017-05-24 19:34:00
DXC DX de TA2DE: 14235.1 EL2BG Tnx Richmond 73 fm Istanbul lotw pls 2017-05-24 19:09:00
DXC DX de G3HTA: 14235.0 EL2BG NOT ON AF-111 YET 1908Z 2017-05-24 19:08:00
DXC DX de DK8ZZ: 14235.1 EL2BG simplex tnx 1904Z 2017-05-24 19:04:00
DXC DX de DJ5VB: 14235.0 EL2BG 1900Z 2017-05-24 19:00:00
DXC DX de SQ9J: 14235.0 EL2BG strong ! 1853Z 2017-05-24 18:53:00
DXC DX de OE5RAL: 14235.0 EL2BG tnx 59 Richmond 1839Z 2017-05-24 18:39:00
DXC DX de SP5NOF: 14235.0 EL2BG tnx qso 1838Z 2017-05-24 18:38:00
DXC DX de IZ7XMY: 14235.0 EL2BG tnx strong 1803Z 2017-05-24 18:03:00
DXC DX de RK7C: 14235.0 EL2BG tnx QSO 1800Z 2017-05-24 18:00:00
DXC DX de R3KW: 14235.0 EL2BG <<<< CQ..CQ..>>>> 1752Z 2017-05-24 17:52:00
DXC DX de TA4RC: 14235.0 EL2BG 59 in TURKEY.Thanks Ricmond 1750Z 2017-05-24 17:50:00
DXC DX de F4VSE: 14235.0 EL2BG TU BY NUMBERS 1748Z 2017-05-24 17:48:00
DXC DX de F4DSK: 14235.0 EL2BG not IOTA - inland island 1740Z 2017-05-24 17:40:00
DXC DX de A61FJ: 14235.0 EL2BG AF-111 1739Z 2017-05-24 17:39:00
DXC DX de MM0GTU: 14235.0 EL2BG cq by numbers 1737Z 2017-05-24 17:37:00
DXC DX de IZ1ZJS: 14235.0 EL2BG 1735Z 2017-05-24 17:35:00
DXC DX de EL2BG: 14235.0 EL2BG Richmond calling cq dx and standing by 2017-05-24 17:32:00
DXC DX de K3NUI: 14250.0 EL2BG tnx rich 2107Z 2017-05-19 21:07:00
DXC DX de ND7J: 14250.0 EL2BG 2106Z 2017-05-19 21:06:00
DXC DX de IM0DTF: 14250.0 EL2BG Tnx!! And 73's 2103Z 2017-05-19 21:03:00
DXC DX de 9Z4Y: 14250.0 EL2BG tnx Richmond 73 from Caribbean 2017-05-19 20:56:00
DXC DX de JE1KEY: 14250.0 EL2BG tnx 2053Z 2017-05-19 20:53:00
DXC DX de IK8SDA: 14250.0 EL2BG good signal 2053Z 2017-05-19 20:53:00
DXC DX de W2MJP: 14250.0 EL2BG AF-111 Thx New 1 2050Z 2017-05-19 20:50:00
DXC DX de EA5JK: 14250.0 EL2BG 2047Z 2017-05-19 20:47:00
DXC DX de K4BBH: 14250.0 EL2BG big pile up, wait before calling 2017-05-19 20:45:00
DXC DX de IK2BGT: 14250.0 EL2BG tnx listing n°2- 59 2036Z 2017-05-19 20:36:00
DXC DX de N2DDX: 14250.0 EL2BG 2036Z 2017-05-19 20:36:00
DXC DX de IZ0GYR: 14250.0 EL2BG 2032Z 2017-05-19 20:32:00
DXC DX de OE9LWV: 14250.0 EL2BG now worked :-) 2030Z 2017-05-19 20:30:00
DXC DX de IU8HEP: 14250.0 EL2BG Tnx for QSO... 73!!! 2029Z 2017-05-19 20:29:00
DXC DX de IK7JVE: 14250.0 EL2BG tnx for conttact 73 2025Z 2017-05-19 20:25:00
DXC DX de R7GA: 14250.0 EL2BG TNX QSO! 73! Number #7 2020Z 2017-05-19 20:20:00
DXC DX de YV7DX: 14250.0 EL2BG Hi Richmond nice cpy bye 73 2019Z 2017-05-19 20:19:00
DXC DX de KE5EE: 14250.0 EL2BG Tnx simplex by the numbers 2018Z 2017-05-19 20:18:00
DXC DX de DF5KB: 14250.0 EL2BG tnx new dxcc 2018Z 2017-05-19 20:18:00
DXC DX de ON3SAT: 14250.0 EL2BG 2011Z 2017-05-19 20:11:00
DXC DX de IV3DSG: 14250.0 EL2BG 59 2010Z 2017-05-19 20:10:00
DXC DX de K2TRD: 14250.0 EL2BG 2006Z 2017-05-19 20:06:00
DXC DX de ON3AT: 14250.0 EL2BG 55 2003Z 2017-05-19 20:03:00
DXC DX de OE9LWV: 14250.0 EL2BG now by number 1 hard waiting for me 2017-05-19 19:52:00
DXC DX de 2E0KVJ: 14250.0 EL2BG calling by numbers 1948Z 2017-05-19 19:48:00
DXC DX de EL2BG: 14250.0 EL2BG Richmond calling cq dx and standing by 2017-05-19 19:38:00
DXC DX de PY1NS: 18145.0 EL2BG pse beam to South America 1902Z 2017-05-19 19:02:00
DXC DX de IK2VUQ: 18145.0 EL2BG tnx qso 73 1856Z 2017-05-19 18:56:00
DXC DX de UX1BZ: 18145.0 EL2BG tnx QSO 1853Z 2017-05-19 18:53:00
DXC DX de SV1CEI: 18145.0 EL2BG tks...73 1853Z 2017-05-19 18:53:00
DXC DX de SV1PAJ: 18145.0 EL2BG 1852Z 2017-05-19 18:52:00
DXC DX de NE8Z: 18145.0 EL2BG 1840Z 2017-05-19 18:40:00
DXC DX de IU8FRE: 18145.0 EL2BG 73 from Luca - new band. 1836Z 2017-05-19 18:36:00
DXC DX de OH7S: 18145.0 EL2BG 1830Z 2017-05-19 18:30:00
DXC DX de R7GA: 18145.0 EL2BG TNX QSO! 73! By Number Now #7 18 2017-05-19 18:27:00
DXC DX de SV6JHA: 18145.0 EL2BG by numbers!,tnx 1823Z 2017-05-19 18:23:00
DXC DX de EA1FCI: 18145.0 EL2BG 59 strong always tnx 1812Z 2017-05-19 18:12:00
DXC DX de EB1AD: 18145.0 EL2BG 59 strong always tnx 1807Z 2017-05-19 18:07:00
DXC DX de EL2BG: 18145.0 EL2BG Richmond calling cq dx and standing by 2017-05-19 18:01:00
DXC DX de RO5I: 14200.0 EL2BG thx! Many tks! 1724Z 2017-05-11 17:24:00
DXC DX de R4FCJ: 14200.0 EL2BG tnx qso! 1717Z 2017-05-11 17:17:00
DXC DX de IU4BIP: 14200.0 EL2BG Tnx QSO ,73 1714Z 2017-05-11 17:14:00
DXC DX de IV3OKO: 14200.0 EL2BG 1712Z 2017-05-11 17:12:00
DXC DX de IU4BIP: 14200.0 EL2BG Number 2 only now 1709Z 2017-05-11 17:09:00
DXC DX de IU4BIP: 14200.0 EL2BG Calling Number 3 now 1709Z 2017-05-11 17:09:00
DXC DX de IZ1HHT: 14200.0 EL2BG TnX Ciao 1701Z 2017-05-11 17:01:00
DXC DX de 4X6TT: 14200.0 EL2BG AF-111 1656Z 2017-05-11 16:56:00
DXC DX de IK2WSO: 14200.0 EL2BG great ears 1655Z 2017-05-11 16:55:00
DXC DX de RK6FO: 14200.0 EL2BG tnx QSO 1652Z 2017-05-11 16:52:00
DXC DX de RW3GC: 14200.0 EL2BG Tnx QSO, 73! 1650Z 2017-05-11 16:50:00
DXC DX de 2E0MNG: 14200.0 EL2BG 1643Z 2017-05-11 16:43:00
DXC DX de EL2BG: 14200.0 EL2BG Richmond calling cq dx and standing by 2017-05-11 16:39:00
DXC DX de EA3CB: 18126.0 EL2BG 1616Z 2017-05-11 16:16:00
DXC DX de IT9DDS: 18126.0 EL2BG Tnx 1606Z 2017-05-11 16:06:00
DXC DX de ON3JMV: 18126.0 EL2BG TNX QSO 1602Z 2017-05-11 16:02:00
DXC DX de IZ4UFD: 18126.0 EL2BG 5/9 ciao 1600Z 2017-05-11 16:00:00
DXC DX de IK8IGK: 18126.0 EL2BG tnx qso, 73 1600Z 2017-05-11 16:00:00
DXC DX de OK2MI: 18126.0 EL2BG tnx QSO 1559Z 2017-05-11 15:59:00
DXC DX de IU5HIV: 18126.0 EL2BG Not 9L2BG...but EL2BG 1557Z 2017-05-11 15:57:00
DXC DX de IU5HIV: 18126.0 EL2BG attention EL2BG is correct...no 9L2BG 2017-05-11 15:56:00
DXC DX de ON3MPA: 18126.0 EL2BG Correction call : EL2BG in place of 9L2BG 2017-05-11 15:50:00
DXC DX de IU5HIV: 18126.0 EL2BG Tnx 1524Z 2017-05-11 15:24:00
DXC DX de EA1IMP: 18126.0 EL2BG 59 , tx 73 1522Z 2017-05-11 15:22:00
DXC DX de JH3EDG: 18126.0 EL2BG tnx 1520Z 2017-05-11 15:20:00
DXC DX de IZ1UIA: 18126.0 EL2BG TNX 73 1515Z 2017-05-11 15:15:00
DXC DX de IZ2EWN: 18126.0 EL2BG tnx 73 ciao 1513Z 2017-05-11 15:13:00
DXC DX de I1APQ: 18126.0 EL2BG Richmond in Monrovia - LIBERIA 2017-05-11 15:08:00
DXC DX de EL2BG: 18126.0 EL2BG 1501Z 2017-05-11 15:01:00
DXC DX de IW7DHC: 18130.0 EL2BG 1456Z 2017-05-11 14:56:00
DXC DX de I8YAV: 18130.0 EL2BG 1445Z 2017-05-11 14:45:00
DXC DX de DL8QS: 18130.0 EL2BG 1444Z 2017-05-11 14:44:00
DXC DX de EL2BG: 18130.0 EL2BG cq dx 1433Z 2017-05-11 14:33:00
DXC DX de K9RX: 14200.0 EL2BG gud sig in SC 1152Z 2017-05-10 11:52:00
DXC DX de EL2BG: 14200.0 EL2BG Calling cq dx and standing by 1 2017-05-10 11:48:00
DXC DX de EA8CZX: 14287.0 EL2BG CQ 1940Z 2017-05-09 19:40:00
DXC DX de EB3AM: 14287.0 EL2BG 57 in catalonia, ||*|| 1928Z 2017-05-09 19:28:00
DXC DX de RD3K: 14287.0 EL2BG 1927Z 2017-05-09 19:27:00
DXC DX de EL2BG: 14287.0 EL2BG cq dx 1926Z 2017-05-09 19:26:00
DXC DX de TA2LG: 14285.0 EL2BG Tnx qso 73. Turkey 1924Z 2017-05-09 19:24:00
DXC DX de IT9GRX: 14285.0 EL2BG Tnx 1912Z 2017-05-09 19:12:00
DXC DX de IK4ZIF: 14285.0 EL2BG Call by Number 1907Z 2017-05-09 19:07:00
DXC DX de CT1DZY: 14285.0 EL2BG 1854Z 2017-05-09 18:54:00
DXC DX de IW0GIV: 14285.0 EL2BG TNX 1849Z 2017-05-09 18:49:00
DXC DX de CT1FIU: 14285.0 EL2BG TKS 1843Z 2017-05-09 18:43:00
DXC DX de K2GAV: 14285.0 EL2BG 57 in Connecticut 1839Z 2017-05-09 18:39:00
DXC DX de EL2BG: 14285.0 EL2BG Richmond calling CQ DX and standing by 2017-05-09 18:36:00
DXC DX de HB9EOU: 21200.0 EL2BG Tnx good ears !!!! 1930Z 2017-04-17 19:30:00
DXC DX de IT9GRX: 28600.0 EL2BG tnx 1920Z 2017-04-17 19:20:00
DXC DX de EL2BG: 21200.0 EL2BG CQ DX 1920Z 2017-04-17 19:20:00
DXC DX de PY1PDF: 28600.0 EL2BG 55 TNX NEW BAND 1918Z 2017-04-17 19:18:00
DXC DX de EL2BG: 28600.0 EL2BG CQ DX 1913Z 2017-04-17 19:13:00
DXC DX de IZ8MXB: 18135.0 EL2BG SSB 1614Z 2017-04-14 16:14:00
DXC DX de EC5ALJ: 18135.0 EL2BG 5/9 1605Z 2017-04-14 16:05:00
DXC DX de M1KMC: 18135.0 EL2BG 73's thx QSO 1604Z 2017-04-14 16:04:00
DXC DX de AF4HX: 18135.0 EL2BG many tnx 1555Z 2017-04-14 15:55:00
DXC DX de IK6IHU: 18135.0 EL2BG tnx new one 1547Z 2017-04-14 15:47:00
DXC DX de W0QQ: 18135.0 EL2BG Thank you RICHMOND! 1546Z 2017-04-14 15:46:00
DXC DX de EA8ARI: 18135.0 EL2BG tnx,73s 1542Z 2017-04-14 15:42:00
DXC DX de SV7BOY: 18135.0 EL2BG 1539Z 2017-04-14 15:39:00
DXC DX de EA5DNO: 18135.0 EL2BG 1536Z 2017-04-14 15:36:00
DXC DX de SV1GFM: 18135.0 EL2BG tnx QSO 73' 1534Z 2017-04-14 15:34:00
DXC DX de IT9EYA: 18135.0 EL2BG 59+73 1534Z 2017-04-14 15:34:00
DXC DX de HS1NGR: 18135.0 EL2BG CQ GETTING STRONG 1533Z 2017-04-14 15:33:00
DXC DX de UR5IRM: 18135.0 EL2BG TNX QSO! 73! 1532Z 2017-04-14 15:32:00
DXC DX de EA3GOP: 18135.0 EL2BG 5/5 barcelona 3 band 73 1528Z 2017-04-14 15:28:00
DXC DX de EL2BG: 18135.0 EL2BG Richmond calling cq dx and standing by 2017-04-14 15:22:00
DXC DX de F4CUO: 21300.0 EL2BG 73 1508Z 2017-04-14 15:08:00
DXC DX de IZ8XQC: 21300.0 EL2BG simplex 1505Z 2017-04-14 15:05:00
DXC DX de CT1AGS: 21300.0 EL2BG tnx 59, 73 1500Z 2017-04-14 15:00:00
DXC DX de EA5IGO: 21300.0 EL2BG 1459Z 2017-04-14 14:59:00
DXC DX de PY2XU: 21300.0 EL2BG big signal 73 VAL 1457Z 2017-04-14 14:57:00
DXC DX de EA5DNO: 21300.0 EL2BG simplex 1454Z 2017-04-14 14:54:00
DXC DX de EA3HPX: 21300.0 EL2BG 1454Z 2017-04-14 14:54:00
DXC DX de RA3WDK: 21300.0 EL2BG Richmond TNX ! 73! 1451Z 2017-04-14 14:51:00
DXC DX de DO5OT: 21300.0 EL2BG 5/6 high QSB but not bussy jet gl 2017-04-14 14:48:00
DXC DX de OE8TTR: 21300.0 EL2BG Richmond cqing - vy weak 1445Z 2017-04-14 14:45:00
DXC DX de EA1AT: 21300.0 EL2BG TNX QSO 59 73 GD 1429Z 2017-04-14 14:29:00
DXC DX de IC8XIL: 21300.0 EL2BG tnx Rich 1426Z 2017-04-14 14:26:00
DXC DX de PY2HP: 21300.0 EL2BG 1424Z 2017-04-14 14:24:00
DXC DX de EC7RC: 21300.0 EL2BG tnx 59 73 simplex 1423Z 2017-04-14 14:23:00
DXC DX de EC5ALJ: 21300.0 EL2BG 5/5 1421Z 2017-04-14 14:21:00
DXC DX de EA5EE: 21300.0 EL2BG 55 tnx qso 1417Z 2017-04-14 14:17:00
DXC DX de IU1FID: 21300.0 EL2BG 1413Z 2017-04-14 14:13:00
DXC DX de SV3IBP: 21300.0 EL2BG 1412Z 2017-04-14 14:12:00
DXC DX de EA4ETN: 21300.0 EL2BG 1409Z 2017-04-14 14:09:00
DXC DX de WC3W: 21300.0 EL2BG Simplex 73! 1406Z 2017-04-14 14:06:00
DXC DX de EA8ARI: 21300.0 EL2BG Tnx, 73s 1401Z 2017-04-14 14:01:00
DXC DX de EA3GOP: 21300.0 EL2BG 5/5 2 Band Barcelona t3 1359Z 2017-04-14 13:59:00
DXC DX de PJ2GT: 21300.0 EL2BG 1 call and QSL :) 1353Z 2017-04-14 13:53:00
DXC DX de EL2BG: 21300.0 EL2BG Richmond calling CQ DX and standing by 2017-04-14 13:52:00
DXC DX de EL2BG: 21300.0 EL2BG 1351Z 2017-04-14 13:51:00
DXC DX de EA7FDW: 28407.0 EL2BG tnx for qso 73... 1314Z 2017-04-14 13:14:00
DXC DX de EL2BG: 28407.0 EL2BG cq dx 1307Z 2017-04-14 13:07:00
DXC DX de EA8ZT: 18145.0 EL2BG 5/9 in EA8ZT thx 1305Z 2017-04-14 13:05:00
DXC DX de EC7RC: 18145.0 EL2BG 59 73 GOOD LUCK 1256Z 2017-04-14 12:56:00
DXC DX de UN7LZ: 18145.0 EL2BG turn your ant to east pls 1251Z 2017-04-14 12:51:00
DXC DX de GI0PGC: 18145.0 EL2BG TNX 73 1250Z 2017-04-14 12:50:00
DXC DX de EL2BG: 18145.0 EL2BG CQ DX 1239Z 2017-04-14 12:39:00
DXC DX de IZ6HAO: 18160.0 EL2BG TNX FOR NEW BAND 1234Z 2017-04-14 12:34:00
DXC DX de EL2BG: 18160.0 EL2BG Richmond calling cq dx and standing by 2017-04-14 12:28:00
DXC DX de EI6HW: 21300.0 EL2BG 1128Z 2017-04-14 11:28:00
DXC DX de EL2BG: 21300.0 EL2BG Richmond calling cq dx and standing by 2017-04-14 11:22:00
DXC DX de YU5C: 14275.0 EL2BG tnx QSO, 73! 1112Z 2017-04-14 11:12:00
DXC DX de DB6VP: 14275.0 EL2BG by numbers now #6 1104Z 2017-04-14 11:04:00
DXC DX de IZ8FPK: 14275.0 EL2BG tnx 5/9 in Naples 1053Z 2017-04-14 10:53:00
DXC DX de IZ6HAO: 14275.0 EL2BG TU RICHMOND FOR NEW ONE 1027Z 2017-04-14 10:27:00
DXC DX de UX1BZ: 14275.0 EL2BG tnx QSO 1023Z 2017-04-14 10:23:00
DXC DX de IU5EYV: 14275.0 EL2BG tnx 73 1020Z 2017-04-14 10:20:00
DXC DX de SV1BGR: 14275.0 EL2BG 59 in Athens tnx Stavros 73 1020 2017-04-14 10:20:00
DXC DX de IU2IDO: 14275.0 EL2BG 1019Z 2017-04-14 10:19:00
DXC DX de UA3IKI: 14275.0 EL2BG tnx qso 73! 1015Z 2017-04-14 10:15:00
DXC DX de 4Z4MU: 14275.0 EL2BG TNX 73 shalom from ISRAEL 1010Z 2017-04-14 10:10:00
DXC DX de EA5DNO: 14275.0 EL2BG 1005Z 2017-04-14 10:05:00
DXC DX de EA3GOP: 14275.0 EL2BG 5/7 barcelona 73 1000Z 2017-04-14 10:00:00
DXC DX de EI6HW: 14275.0 EL2BG 1000Z 2017-04-14 10:00:00
DXC DX de EA1GHQ: 14275.0 EL2BG 59 TNX Simplex 0941Z 2017-04-14 09:41:00
DXC DX de E79D: 14275.0 EL2BG LOUD 0939Z 2017-04-14 09:39:00
DXC DX de EA8ARI: 14275.0 EL2BG Tnx, 73s 0929Z 2017-04-14 09:29:00
DXC DX de UT1VW: 14275.0 EL2BG tnx 0929Z 2017-04-14 09:29:00
DXC DX de SM5YRA: 14275.0 EL2BG Tnx QSO=not strong but readable 2017-04-14 09:20:00
DXC DX de EA7TS: 14275.0 EL2BG tnx qso 0905Z 2017-04-14 09:05:00
DXC DX de 9A7R: 14275.0 EL2BG 0904Z 2017-04-14 09:04:00
DXC DX de RA3DKM: 14275.0 EL2BG tnx QSO 0901Z 2017-04-14 09:01:00
DXC DX de ON3MK: 14275.0 EL2BG QRM on this freq. 0855Z 2017-04-14 08:55:00
DXC DX de OE3ZJC: 14275.0 EL2BG 57..73..GOOD DX 0854Z 2017-04-14 08:54:00
DXC DX de DM5HF: 14275.0 EL2BG 0852Z 2017-04-14 08:52:00